createdAt,value
2023-02-14T00:02:36.606Z,1.50
2023-02-14T00:07:38.229Z,1.27
2023-02-14T00:12:39.737Z,1.67
2023-02-14T00:17:41.188Z,1.88
2023-02-14T00:22:42.675Z,1.50
2023-02-14T00:27:44.383Z,1.30
2023-02-14T00:32:45.872Z,1.85
2023-02-14T00:37:47.394Z,2.42
2023-02-14T00:42:48.912Z,1.55
2023-02-14T00:47:50.446Z,1.70
2023-02-14T00:52:51.976Z,1.10
2023-02-14T00:57:53.452Z,1.52
2023-02-14T01:02:55.053Z,2.45
2023-02-14T01:07:56.598Z,2.00
2023-02-14T01:12:58.391Z,1.23
2023-02-14T01:18:00.602Z,1.73
2023-02-14T01:23:02.715Z,1.50
2023-02-14T01:28:05.035Z,1.27
2023-02-14T01:33:06.597Z,1.58
2023-02-14T01:38:08.159Z,1.88
2023-02-14T01:43:16.062Z,1.25
2023-02-14T01:48:21.177Z,1.48
2023-02-14T01:53:27.336Z,1.00
2023-02-14T01:58:31.407Z,1.45
2023-02-14T02:03:37.088Z,1.65
2023-02-14T02:08:48.757Z,1.63
2023-02-14T02:13:50.385Z,1.52
2023-02-14T02:19:12.037Z,1.77
2023-02-14T02:24:25.667Z,2.22
2023-02-14T02:29:38.773Z,2.97
2023-02-14T02:35:17.807Z,1.50
2023-02-14T02:40:47.302Z,2.67
2023-02-14T02:46:16.715Z,3.40
2023-02-14T02:51:28.010Z,2.13
2023-02-14T02:56:38.002Z,2.80
2023-02-14T03:01:41.208Z,2.78
2023-02-14T03:06:45.284Z,2.08
2023-02-14T03:11:54.475Z,3.95
2023-02-14T03:17:07.257Z,2.65
2023-02-14T03:22:21.008Z,3.10
2023-02-14T03:27:38.960Z,2.30
2023-02-14T03:33:01.687Z,2.28
2023-02-14T03:38:41.821Z,2.95
2023-02-14T03:43:48.454Z,3.45
2023-02-14T03:48:52.688Z,3.40
2023-02-14T03:53:58.063Z,3.03
2023-02-14T03:59:07.150Z,2.83
2023-02-14T04:04:09.720Z,2.15
2023-02-14T04:09:11.232Z,2.40
2023-02-14T04:14:12.701Z,2.53
2023-02-14T04:19:14.218Z,3.05
2023-02-14T04:24:15.800Z,3.28
2023-02-14T04:29:17.291Z,2.97
2023-02-14T04:34:18.796Z,3.47
2023-02-14T04:39:20.432Z,3.10
2023-02-14T04:44:21.954Z,2.53
2023-02-14T04:49:23.461Z,3.17
2023-02-14T04:54:25.374Z,3.38
2023-02-14T04:59:26.881Z,2.28
2023-02-14T05:04:28.345Z,3.22
2023-02-14T05:09:29.895Z,2.42
2023-02-14T05:14:31.299Z,3.05
2023-02-14T05:19:32.691Z,3.47
2023-02-14T05:24:34.158Z,3.05
2023-02-14T05:29:35.644Z,3.75
2023-02-14T05:34:37.164Z,3.80
2023-02-14T05:39:38.650Z,3.35
2023-02-14T05:44:40.143Z,5.20
2023-02-14T05:49:41.638Z,3.83
2023-02-14T05:54:43.124Z,2.92
2023-02-14T05:59:44.578Z,4.20
2023-02-14T06:04:46.232Z,5.45
2023-02-14T06:09:47.776Z,4.88
2023-02-14T06:14:49.341Z,4.20
2023-02-14T06:19:50.953Z,4.68
2023-02-14T06:24:52.405Z,4.28
2023-02-14T06:29:53.919Z,5.15
2023-02-14T06:34:55.463Z,4.47
2023-02-14T06:39:56.948Z,4.75
2023-02-14T06:44:58.553Z,3.83
2023-02-14T06:50:00.057Z,5.57
2023-02-14T06:55:01.524Z,5.13
2023-02-14T07:00:03.450Z,4.43
2023-02-14T07:05:05.183Z,5.55
2023-02-14T07:10:07.186Z,5.43
2023-02-14T07:15:11.520Z,6.20
2023-02-14T07:20:13.574Z,7.20
2023-02-14T07:25:15.092Z,6.68
2023-02-14T07:30:16.773Z,7.25
2023-02-14T07:35:18.546Z,6.97
2023-02-14T07:40:20.427Z,6.13
2023-02-14T07:45:22.694Z,6.40
2023-02-14T07:50:24.314Z,7.25
2023-02-14T07:55:25.847Z,7.18
2023-02-14T08:00:27.855Z,7.80
2023-02-14T08:05:29.668Z,7.70
2023-02-14T08:10:31.376Z,8.60
2023-02-14T08:15:35.140Z,6.85
2023-02-14T08:20:36.691Z,7.80
2023-02-14T08:25:38.449Z,7.20
2023-02-14T08:30:40.621Z,7.25
2023-02-14T08:35:42.375Z,7.95
2023-02-14T08:40:44.688Z,7.93
2023-02-14T08:45:46.294Z,6.13
2023-02-14T08:50:47.797Z,7.05
2023-02-14T08:55:49.542Z,8.73
2023-02-14T09:00:51.182Z,6.43
2023-02-14T09:05:52.726Z,6.15
2023-02-14T09:10:54.271Z,7.43
2023-02-14T09:15:55.814Z,7.22
2023-02-14T09:20:57.959Z,7.10
2023-02-14T09:26:01.082Z,6.85
2023-02-14T09:31:24.370Z,7.30
2023-02-14T09:36:25.995Z,7.38
2023-02-14T09:41:30.474Z,7.45
2023-02-14T09:46:41.664Z,7.85
2023-02-14T09:51:51.390Z,7.32
2023-02-14T09:57:13.431Z,7.70
2023-02-14T10:02:31.979Z,8.23
2023-02-14T10:07:43.646Z,6.53
2023-02-14T10:12:51.549Z,8.32
2023-02-14T10:18:01.873Z,7.60
2023-02-14T10:23:15.018Z,7.65
2023-02-14T10:28:23.685Z,7.10
2023-02-14T10:33:30.750Z,7.47
2023-02-14T10:39:07.814Z,6.90
2023-02-14T10:44:18.107Z,6.78
2023-02-14T10:49:30.532Z,8.27
2023-02-14T10:54:38.250Z,8.13
2023-02-14T10:59:50.923Z,8.15
2023-02-14T11:04:52.842Z,7.35
2023-02-14T11:09:54.391Z,8.43
2023-02-14T11:15:09.118Z,6.72
2023-02-14T11:20:19.843Z,8.00
2023-02-14T11:25:27.085Z,7.22
2023-02-14T11:30:36.366Z,7.18
2023-02-14T11:35:38.776Z,9.02
2023-02-14T11:40:42.072Z,6.80
2023-02-14T11:45:49.087Z,8.02
2023-02-14T11:51:03.724Z,6.78
2023-02-14T11:56:05.704Z,8.70
2023-02-14T12:01:20.893Z,7.72
2023-02-14T12:06:31.023Z,8.00
2023-02-14T12:11:32.477Z,6.88
2023-02-14T12:16:49.046Z,6.15
2023-02-14T12:22:01.086Z,7.20
2023-02-14T12:27:13.479Z,8.70
2023-02-14T12:32:24.628Z,8.55
2023-02-14T12:37:42.519Z,7.18
2023-02-14T12:43:03.324Z,7.15
2023-02-14T12:48:17.002Z,8.13
2023-02-14T12:53:28.731Z,7.15
2023-02-14T12:58:44.823Z,7.18
2023-02-14T13:04:05.047Z,7.30
2023-02-14T13:09:11.774Z,8.00
2023-02-14T13:14:43.750Z,8.57
2023-02-14T13:20:05.866Z,7.72
2023-02-14T13:25:24.140Z,7.70
2023-02-14T13:30:31.003Z,8.50
2023-02-14T13:35:34.121Z,8.48
2023-02-14T13:40:36.454Z,8.57
2023-02-14T13:45:40.693Z,7.75
2023-02-14T13:50:58.645Z,7.60
2023-02-14T13:56:01.103Z,8.02
2023-02-14T14:01:33.411Z,7.57
2023-02-14T14:07:02.848Z,9.27
2023-02-14T14:12:04.435Z,7.40
2023-02-14T14:17:19.950Z,7.28
2023-02-14T14:22:21.762Z,9.73
2023-02-14T14:27:31.825Z,7.25
2023-02-14T14:32:36.513Z,8.63
2023-02-14T14:37:49.085Z,9.10
2023-02-14T14:42:51.650Z,7.47
2023-02-14T14:47:56.284Z,7.50
2023-02-14T14:53:05.600Z,9.10
2023-02-14T14:58:36.295Z,7.60
2023-02-14T15:03:38.244Z,11.07
2023-02-14T15:08:39.733Z,7.85
2023-02-14T15:13:50.998Z,8.63
2023-02-14T15:18:57.721Z,8.07
2023-02-14T15:24:01.444Z,10.73
2023-02-14T15:29:06.192Z,8.95
2023-02-14T15:34:10.022Z,8.85
2023-02-14T15:39:13.027Z,9.02
2023-02-14T15:44:23.388Z,10.68
2023-02-14T15:49:33.248Z,9.52
2023-02-14T15:54:38.969Z,9.15
2023-02-14T15:59:42.440Z,9.05
2023-02-14T16:04:44.615Z,10.15
2023-02-14T16:09:46.732Z,9.10
2023-02-14T16:15:01.876Z,9.43
2023-02-14T16:20:26.094Z,9.10
2023-02-14T16:25:27.572Z,9.57
2023-02-14T16:30:29.139Z,9.52
2023-02-14T16:35:31.095Z,7.82
2023-02-14T16:40:32.628Z,9.75
2023-02-14T16:45:34.015Z,10.05
2023-02-14T16:50:37.894Z,8.43
2023-02-14T16:55:40.272Z,10.65
2023-02-14T17:00:41.672Z,8.70
2023-02-14T17:05:43.565Z,10.15
2023-02-14T17:10:47.646Z,9.27
2023-02-14T17:15:50.103Z,10.23
2023-02-14T17:20:51.712Z,9.45
2023-02-14T17:25:53.214Z,10.02
2023-02-14T17:30:54.843Z,10.48
2023-02-14T17:35:56.540Z,10.18
2023-02-14T17:40:58.350Z,9.95
2023-02-14T17:46:04.415Z,8.82
2023-02-14T17:51:08.361Z,9.07
2023-02-14T17:56:15.410Z,10.27
2023-02-14T18:01:25.182Z,9.80
2023-02-14T18:06:26.791Z,8.68
2023-02-14T18:11:30.897Z,8.70
2023-02-14T18:16:32.462Z,9.55
2023-02-14T18:21:35.900Z,8.52
2023-02-14T18:26:39.678Z,8.80
2023-02-14T18:31:43.177Z,9.80
2023-02-14T18:36:44.670Z,9.93
2023-02-14T18:41:46.134Z,8.98
2023-02-14T18:46:47.585Z,8.48
2023-02-14T18:51:49.093Z,9.70
2023-02-14T18:56:50.609Z,9.05
2023-02-14T19:01:52.218Z,8.52
2023-02-14T19:06:53.687Z,8.45
2023-02-14T19:11:55.475Z,8.32
2023-02-14T19:16:56.927Z,7.93
2023-02-14T19:21:59.577Z,9.27
2023-02-14T19:27:01.143Z,9.23
2023-02-14T19:32:02.730Z,8.55
2023-02-14T19:37:04.277Z,9.20
2023-02-14T19:42:05.861Z,8.32
2023-02-14T19:47:23.396Z,7.65
2023-02-14T19:52:28.749Z,6.68
2023-02-14T19:57:30.239Z,7.75
2023-02-14T20:02:31.732Z,7.68
2023-02-14T20:07:33.330Z,8.77
2023-02-14T20:12:35.046Z,8.05
2023-02-14T20:17:36.567Z,9.45
2023-02-14T20:22:38.145Z,8.52
2023-02-14T20:27:39.701Z,7.97
2023-02-14T20:32:41.437Z,8.77
2023-02-14T20:37:43.021Z,8.23
2023-02-14T20:42:44.512Z,8.35
2023-02-14T20:47:48.961Z,6.97
2023-02-14T20:52:50.628Z,8.15
2023-02-14T20:57:52.088Z,9.65
2023-02-14T21:02:53.835Z,8.20
2023-02-14T21:07:55.453Z,8.48
2023-02-14T21:12:56.905Z,8.77
2023-02-14T21:17:58.459Z,8.45
2023-02-14T21:22:59.913Z,9.18
2023-02-14T21:28:01.388Z,9.00
2023-02-14T21:33:03.011Z,8.55
2023-02-14T21:38:04.586Z,8.23
2023-02-14T21:43:06.074Z,7.53
2023-02-14T21:48:07.744Z,8.43
2023-02-14T21:53:09.308Z,7.00
2023-02-14T21:58:10.906Z,9.07
2023-02-14T22:03:13.251Z,8.23
2023-02-14T22:08:14.990Z,7.25
2023-02-14T22:13:16.667Z,7.43
2023-02-14T22:18:18.482Z,7.43
2023-02-14T22:23:20.076Z,8.40
2023-02-14T22:28:21.582Z,8.13
2023-02-14T22:33:23.119Z,7.03
2023-02-14T22:38:25.237Z,7.03
2023-02-14T22:43:29.778Z,8.07
2023-02-14T22:48:33.473Z,8.88
2023-02-14T22:53:35.122Z,8.65
2023-02-14T22:58:37.079Z,8.43
2023-02-14T23:03:38.607Z,7.88
2023-02-14T23:08:44.939Z,7.65
2023-02-14T23:13:46.495Z,7.10
2023-02-14T23:18:48.074Z,6.95
2023-02-14T23:23:52.461Z,7.90
2023-02-14T23:28:54.126Z,8.60
2023-02-14T23:33:55.840Z,5.82
2023-02-14T23:38:57.698Z,6.63
2023-02-14T23:43:59.171Z,7.70
2023-02-14T23:49:00.810Z,9.07
2023-02-14T23:54:02.645Z,7.95
2023-02-14T23:59:05.700Z,7.30
